sensor_id;sensor_type;location;lat;lon;timestamp;pressure;altitude;pressure_sealevel;temperature;humidity
17309;BME280;8772;42.804;23.426;2022-07-23T00:00:30;94913.41;;;18.41;75.68
17309;BME280;8772;42.804;23.426;2022-07-23T00:02:58;94918.19;;;18.37;76.17
17309;BME280;8772;42.804;23.426;2022-07-23T00:05:25;94921.53;;;18.32;77.39
17309;BME280;8772;42.804;23.426;2022-07-23T00:07:52;94922.53;;;18.26;78.59
17309;BME280;8772;42.804;23.426;2022-07-23T00:10:19;94921.94;;;18.04;80.07
17309;BME280;8772;42.804;23.426;2022-07-23T00:12:46;94919.38;;;18.09;79.79
17309;BME280;8772;42.804;23.426;2022-07-23T00:15:13;94925.41;;;18.13;80.37
17309;BME280;8772;42.804;23.426;2022-07-23T00:17:40;94920.28;;;18.06;81.12
17309;BME280;8772;42.804;23.426;2022-07-23T00:20:09;94924.47;;;17.98;85.30
17309;BME280;8772;42.804;23.426;2022-07-23T00:22:36;94916.97;;;17.93;92.21
17309;BME280;8772;42.804;23.426;2022-07-23T00:25:04;94923.28;;;17.90;93.97
17309;BME280;8772;42.804;23.426;2022-07-23T00:27:31;94924.16;;;17.87;95.95
17309;BME280;8772;42.804;23.426;2022-07-23T00:29:57;94927.34;;;17.86;95.33
17309;BME280;8772;42.804;23.426;2022-07-23T00:32:24;94921.47;;;17.78;98.02
17309;BME280;8772;42.804;23.426;2022-07-23T00:34:51;94929.84;;;17.72;100.00
17309;BME280;8772;42.804;23.426;2022-07-23T00:37:20;94923.88;;;17.77;98.16
17309;BME280;8772;42.804;23.426;2022-07-23T00:39:47;94923.09;;;17.76;98.91
17309;BME280;8772;42.804;23.426;2022-07-23T00:42:13;94925.94;;;17.64;100.00
17309;BME280;8772;42.804;23.426;2022-07-23T00:44:40;94922.03;;;17.65;100.00
17309;BME280;8772;42.804;23.426;2022-07-23T00:47:07;94919.78;;;17.63;100.00
17309;BME280;8772;42.804;23.426;2022-07-23T00:49:34;94917.66;;;17.67;96.92
17309;BME280;8772;42.804;23.426;2022-07-23T00:52:02;94919.63;;;17.67;94.48
17309;BME280;8772;42.804;23.426;2022-07-23T00:54:31;94914.81;;;17.53;94.29
17309;BME280;8772;42.804;23.426;2022-07-23T00:56:58;94921.13;;;17.59;94.48
17309;BME280;8772;42.804;23.426;2022-07-23T00:59:25;94915.41;;;17.57;93.86
17309;BME280;8772;42.804;23.426;2022-07-23T01:01:51;94916.00;;;17.52;93.68
17309;BME280;8772;42.804;23.426;2022-07-23T01:07:40;94926.56;;;17.68;93.93
17309;BME280;8772;42.804;23.426;2022-07-23T01:10:09;94929.56;;;17.70;93.94
17309;BME280;8772;42.804;23.426;2022-07-23T01:12:50;94926.56;;;17.77;94.82
17309;BME280;8772;42.804;23.426;2022-07-23T01:15:17;94927.59;;;17.61;93.64
17309;BME280;8772;42.804;23.426;2022-07-23T01:17:44;94928.63;;;17.55;96.27
17309;BME280;8772;42.804;23.426;2022-07-23T01:20:11;94931.28;;;17.46;96.52
17309;BME280;8772;42.804;23.426;2022-07-23T01:22:39;94915.66;;;17.50;96.23
17309;BME280;8772;42.804;23.426;2022-07-23T01:25:07;94921.41;;;17.52;97.30
17309;BME280;8772;42.804;23.426;2022-07-23T01:27:34;94923.22;;;17.55;95.66
17309;BME280;8772;42.804;23.426;2022-07-23T01:30:02;94926.53;;;17.59;95.63
17309;BME280;8772;42.804;23.426;2022-07-23T01:32:30;94915.72;;;17.68;92.33
17309;BME280;8772;42.804;23.426;2022-07-23T01:34:57;94913.78;;;17.77;92.15
17309;BME280;8772;42.804;23.426;2022-07-23T01:37:23;94916.38;;;17.89;91.14
17309;BME280;8772;42.804;23.426;2022-07-23T01:39:52;94916.22;;;17.84;92.11
17309;BME280;8772;42.804;23.426;2022-07-23T01:42:19;94911.84;;;17.86;92.34
17309;BME280;8772;42.804;23.426;2022-07-23T01:44:45;94912.16;;;17.88;90.81
17309;BME280;8772;42.804;23.426;2022-07-23T01:47:12;94910.03;;;17.83;91.28
17309;BME280;8772;42.804;23.426;2022-07-23T01:49:40;94905.56;;;17.89;91.22
17309;BME280;8772;42.804;23.426;2022-07-23T01:52:06;94910.06;;;17.92;94.22
17309;BME280;8772;42.804;23.426;2022-07-23T01:54:37;94911.25;;;17.91;94.70
17309;BME280;8772;42.804;23.426;2022-07-23T01:57:06;94905.38;;;17.93;96.10
17309;BME280;8772;42.804;23.426;2022-07-23T01:59:33;94909.75;;;17.90;98.05
17309;BME280;8772;42.804;23.426;2022-07-23T02:02:00;94912.28;;;17.76;100.00
17309;BME280;8772;42.804;23.426;2022-07-23T02:04:28;94910.47;;;17.73;100.00
17309;BME280;8772;42.804;23.426;2022-07-23T02:06:55;94912.44;;;17.64;100.00
17309;BME280;8772;42.804;23.426;2022-07-23T02:09:22;94911.50;;;17.58;98.68
17309;BME280;8772;42.804;23.426;2022-07-23T02:11:49;94906.66;;;17.44;98.63
17309;BME280;8772;42.804;23.426;2022-07-23T02:14:18;94908.16;;;17.45;98.14
17309;BME280;8772;42.804;23.426;2022-07-23T02:16:45;94914.09;;;17.31;98.83
17309;BME280;8772;42.804;23.426;2022-07-23T02:19:12;94911.59;;;17.36;100.00
17309;BME280;8772;42.804;23.426;2022-07-23T02:21:39;94909.97;;;17.39;100.00
17309;BME280;8772;42.804;23.426;2022-07-23T02:24:06;94913.28;;;17.43;100.00
17309;BME280;8772;42.804;23.426;2022-07-23T02:26:33;94920.44;;;17.37;100.00
17309;BME280;8772;42.804;23.426;2022-07-23T02:29:00;94918.59;;;17.34;100.00
17309;BME280;8772;42.804;23.426;2022-07-23T02:31:29;94923.41;;;17.30;100.00
17309;BME280;8772;42.804;23.426;2022-07-23T02:33:56;94917.34;;;17.17;100.00
17309;BME280;8772;42.804;23.426;2022-07-23T02:36:23;94926.06;;;17.21;100.00
17309;BME280;8772;42.804;23.426;2022-07-23T02:38:50;94917.78;;;17.15;100.00
17309;BME280;8772;42.804;23.426;2022-07-23T02:41:17;94924.09;;;17.12;100.00
17309;BME280;8772;42.804;23.426;2022-07-23T02:43:44;94926.50;;;17.10;100.00
17309;BME280;8772;42.804;23.426;2022-07-23T02:46:11;94922.72;;;17.08;100.00
17309;BME280;8772;42.804;23.426;2022-07-23T02:48:40;94929.75;;;17.05;100.00
17309;BME280;8772;42.804;23.426;2022-07-23T02:51:07;94936.47;;;17.01;100.00
17309;BME280;8772;42.804;23.426;2022-07-23T02:53:33;94931.66;;;16.96;100.00
17309;BME280;8772;42.804;23.426;2022-07-23T02:56:00;94938.69;;;16.93;100.00
17309;BME280;8772;42.804;23.426;2022-07-23T02:58:27;94939.47;;;16.94;100.00
17309;BME280;8772;42.804;23.426;2022-07-23T03:00:54;94934.31;;;16.87;100.00
17309;BME280;8772;42.804;23.426;2022-07-23T03:03:21;94948.41;;;16.82;100.00
17309;BME280;8772;42.804;23.426;2022-07-23T03:05:50;94941.63;;;16.77;100.00
17309;BME280;8772;42.804;23.426;2022-07-23T03:08:16;94937.22;;;16.71;100.00
17309;BME280;8772;42.804;23.426;2022-07-23T03:10:43;94948.03;;;16.71;100.00
17309;BME280;8772;42.804;23.426;2022-07-23T03:13:10;94949.03;;;16.64;100.00
17309;BME280;8772;42.804;23.426;2022-07-23T03:15:37;94951.44;;;16.62;100.00
17309;BME280;8772;42.804;23.426;2022-07-23T03:18:04;94949.72;;;16.56;100.00
17309;BME280;8772;42.804;23.426;2022-07-23T03:20:31;94955.56;;;16.54;100.00
17309;BME280;8772;42.804;23.426;2022-07-23T03:23:00;94961.09;;;16.51;100.00
17309;BME280;8772;42.804;23.426;2022-07-23T03:25:27;94959.53;;;16.41;100.00
17309;BME280;8772;42.804;23.426;2022-07-23T03:27:54;94955.31;;;16.40;100.00
17309;BME280;8772;42.804;23.426;2022-07-23T03:30:21;94958.34;;;16.42;100.00
17309;BME280;8772;42.804;23.426;2022-07-23T03:32:48;94961.34;;;16.44;100.00
17309;BME280;8772;42.804;23.426;2022-07-23T03:35:15;94960.72;;;16.40;100.00
17309;BME280;8772;42.804;23.426;2022-07-23T03:37:42;94955.31;;;16.40;100.00
17309;BME280;8772;42.804;23.426;2022-07-23T03:40:11;94944.19;;;16.38;100.00
17309;BME280;8772;42.804;23.426;2022-07-23T03:42:38;94961.34;;;16.44;100.00
17309;BME280;8772;42.804;23.426;2022-07-23T03:45:08;94958.97;;;16.46;100.00
17309;BME280;8772;42.804;23.426;2022-07-23T03:47:35;94960.78;;;16.49;100.00
17309;BME280;8772;42.804;23.426;2022-07-23T03:50:03;94961.09;;;16.51;100.00
17309;BME280;8772;42.804;23.426;2022-07-23T03:52:30;94954.06;;;16.53;100.00
17309;BME280;8772;42.804;23.426;2022-07-23T03:54:57;94955.03;;;16.59;100.00
17309;BME280;8772;42.804;23.426;2022-07-23T03:57:25;94966.13;;;16.61;100.00
17309;BME280;8772;42.804;23.426;2022-07-23T03:59:52;94962.13;;;16.66;100.00
17309;BME280;8772;42.804;23.426;2022-07-23T04:02:19;94969.63;;;16.71;100.00
17309;BME280;8772;42.804;23.426;2022-07-23T04:04:46;94960.34;;;16.72;100.00
17309;BME280;8772;42.804;23.426;2022-07-23T04:07:13;94965.63;;;16.75;100.00
17309;BME280;8772;42.804;23.426;2022-07-23T04:09:40;94960.84;;;16.79;100.00
17309;BME280;8772;42.804;23.426;2022-07-23T04:12:07;94968.19;;;16.79;100.00
17309;BME280;8772;42.804;23.426;2022-07-23T04:14:36;94974.22;;;16.83;100.00
17309;BME280;8772;42.804;23.426;2022-07-23T04:17:03;94976.03;;;16.86;100.00
17309;BME280;8772;42.804;23.426;2022-07-23T04:19:30;94977.88;;;16.89;100.00
17309;BME280;8772;42.804;23.426;2022-07-23T04:21:57;94968.88;;;16.92;100.00
17309;BME280;8772;42.804;23.426;2022-07-23T04:24:24;94970.25;;;16.96;100.00
17309;BME280;8772;42.804;23.426;2022-07-23T04:26:51;94973.13;;;17.02;100.00
17309;BME280;8772;42.804;23.426;2022-07-23T04:29:18;94982.59;;;17.06;100.00
17309;BME280;8772;42.804;23.426;2022-07-23T04:31:47;94985.19;;;17.10;100.00
17309;BME280;8772;42.804;23.426;2022-07-23T04:34:14;94985.81;;;17.14;100.00
17309;BME280;8772;42.804;23.426;2022-07-23T04:36:41;94988.16;;;17.03;100.00
17309;BME280;8772;42.804;23.426;2022-07-23T04:39:08;94986.69;;;17.11;100.00
17309;BME280;8772;42.804;23.426;2022-07-23T04:41:35;94980.34;;;17.05;100.00
17309;BME280;8772;42.804;23.426;2022-07-23T04:44:02;94978.13;;;17.12;100.00
17309;BME280;8772;42.804;23.426;2022-07-23T04:46:29;94983.25;;;17.19;100.00
17309;BME280;8772;42.804;23.426;2022-07-23T04:48:57;94989.50;;;17.29;100.00
17309;BME280;8772;42.804;23.426;2022-07-23T04:51:24;94988.03;;;17.37;100.00
17309;BME280;8772;42.804;23.426;2022-07-23T04:53:51;94989.59;;;17.47;100.00
17309;BME280;8772;42.804;23.426;2022-07-23T04:56:18;94994.09;;;17.50;100.00
17309;BME280;8772;42.804;23.426;2022-07-23T04:58:45;94994.13;;;17.59;100.00
17309;BME280;8772;42.804;23.426;2022-07-23T05:01:12;94992.94;;;17.60;100.00
17309;BME280;8772;42.804;23.426;2022-07-23T05:03:39;94993.28;;;17.71;100.00
17309;BME280;8772;42.804;23.426;2022-07-23T05:06:08;94990.91;;;17.81;100.00
17309;BME280;8772;42.804;23.426;2022-07-23T05:08:35;94993.66;;;17.90;100.00
17309;BME280;8772;42.804;23.426;2022-07-23T05:11:01;94999.97;;;18.05;100.00
17309;BME280;8772;42.804;23.426;2022-07-23T05:13:28;94999.41;;;18.19;100.00
17309;BME280;8772;42.804;23.426;2022-07-23T05:15:56;94998.97;;;18.30;100.00
17309;BME280;8772;42.804;23.426;2022-07-23T05:18:22;95000.50;;;18.40;100.00
17309;BME280;8772;42.804;23.426;2022-07-23T05:20:49;94998.25;;;18.47;100.00
17309;BME280;8772;42.804;23.426;2022-07-23T05:23:18;95000.66;;;18.63;100.00
17309;BME280;8772;42.804;23.426;2022-07-23T05:25:44;94999.72;;;18.84;100.00
17309;BME280;8772;42.804;23.426;2022-07-23T05:28:11;95008.16;;;19.04;100.00
17309;BME280;8772;42.804;23.426;2022-07-23T05:30:38;95010.25;;;19.27;100.00
17309;BME280;8772;42.804;23.426;2022-07-23T05:33:05;95009.25;;;19.48;100.00
17309;BME280;8772;42.804;23.426;2022-07-23T05:35:33;95015.22;;;19.70;100.00
17309;BME280;8772;42.804;23.426;2022-07-23T05:38:00;95017.84;;;19.88;100.00
17309;BME280;8772;42.804;23.426;2022-07-23T05:40:29;95015.34;;;20.08;100.00
17309;BME280;8772;42.804;23.426;2022-07-23T05:42:55;95009.50;;;20.24;100.00
17309;BME280;8772;42.804;23.426;2022-07-23T05:45:22;95008.84;;;20.38;100.00
17309;BME280;8772;42.804;23.426;2022-07-23T05:47:49;95011.13;;;20.54;100.00
17309;BME280;8772;42.804;23.426;2022-07-23T05:50:16;95010.69;;;20.70;100.00
17309;BME280;8772;42.804;23.426;2022-07-23T05:52:43;95011.19;;;20.83;97.41
17309;BME280;8772;42.804;23.426;2022-07-23T05:55:11;95013.47;;;20.99;96.04
17309;BME280;8772;42.804;23.426;2022-07-23T05:57:40;95006.38;;;21.16;98.21
17309;BME280;8772;42.804;23.426;2022-07-23T06:00:09;95006.09;;;21.28;96.84
17309;BME280;8772;42.804;23.426;2022-07-23T06:02:37;95009.75;;;21.40;98.89
17309;BME280;8772;42.804;23.426;2022-07-23T06:05:05;95008.22;;;21.53;96.47
17309;BME280;8772;42.804;23.426;2022-07-23T06:07:33;95011.94;;;21.65;90.94
17309;BME280;8772;42.804;23.426;2022-07-23T06:10:00;95002.44;;;21.75;91.63
17309;BME280;8772;42.804;23.426;2022-07-23T06:12:27;95010.63;;;21.95;91.14
17309;BME280;8772;42.804;23.426;2022-07-23T06:14:55;95000.44;;;22.10;92.75
17309;BME280;8772;42.804;23.426;2022-07-23T06:17:22;95004.81;;;22.22;85.08
17309;BME280;8772;42.804;23.426;2022-07-23T06:19:49;95006.72;;;22.36;88.46
17309;BME280;8772;42.804;23.426;2022-07-23T06:22:16;95009.69;;;22.52;81.36
17309;BME280;8772;42.804;23.426;2022-07-23T06:24:43;94998.19;;;22.62;80.25
17309;BME280;8772;42.804;23.426;2022-07-23T06:27:10;94998.25;;;22.68;80.33
17309;BME280;8772;42.804;23.426;2022-07-23T06:29:37;95003.34;;;22.80;80.28
17309;BME280;8772;42.804;23.426;2022-07-23T06:32:08;95004.44;;;22.88;80.67
17309;BME280;8772;42.804;23.426;2022-07-23T06:34:35;95008.47;;;22.98;77.45
17309;BME280;8772;42.804;23.426;2022-07-23T06:37:02;95001.38;;;23.06;76.08
17309;BME280;8772;42.804;23.426;2022-07-23T06:39:29;95005.00;;;23.18;79.15
17309;BME280;8772;42.804;23.426;2022-07-23T06:41:56;94997.41;;;23.27;75.88
17309;BME280;8772;42.804;23.426;2022-07-23T06:44:23;94995.47;;;23.33;80.61
17309;BME280;8772;42.804;23.426;2022-07-23T06:46:50;94997.31;;;23.47;74.40
17309;BME280;8772;42.804;23.426;2022-07-23T06:49:18;94992.19;;;23.60;78.19
17309;BME280;8772;42.804;23.426;2022-07-23T06:51:45;94991.34;;;23.74;76.02
17309;BME280;8772;42.804;23.426;2022-07-23T06:54:12;94998.94;;;23.90;71.48
17309;BME280;8772;42.804;23.426;2022-07-23T06:56:39;94989.03;;;23.98;72.01
17309;BME280;8772;42.804;23.426;2022-07-23T06:59:07;94986.13;;;24.13;71.88
17309;BME280;8772;42.804;23.426;2022-07-23T07:01:34;94989.91;;;24.21;71.41
17309;BME280;8772;42.804;23.426;2022-07-23T07:04:01;94989.94;;;24.26;68.79
17309;BME280;8772;42.804;23.426;2022-07-23T07:06:29;94991.50;;;24.38;71.29
17309;BME280;8772;42.804;23.426;2022-07-23T07:08:56;94987.03;;;24.46;72.09
17309;BME280;8772;42.804;23.426;2022-07-23T07:11:23;94993.31;;;24.52;66.54
17309;BME280;8772;42.804;23.426;2022-07-23T07:13:50;94981.19;;;24.64;67.82
17309;BME280;8772;42.804;23.426;2022-07-23T07:16:17;94987.44;;;24.76;68.48
17309;BME280;8772;42.804;23.426;2022-07-23T07:18:44;94980.03;;;24.87;64.69
17309;BME280;8772;42.804;23.426;2022-07-23T07:21:11;94987.25;;;24.95;63.13
17309;BME280;8772;42.804;23.426;2022-07-23T07:23:40;94988.00;;;25.07;63.22
17309;BME280;8772;42.804;23.426;2022-07-23T07:26:07;94981.59;;;25.26;58.54
17309;BME280;8772;42.804;23.426;2022-07-23T07:28:34;94981.13;;;25.39;58.05
17309;BME280;8772;42.804;23.426;2022-07-23T07:31:01;94982.38;;;25.49;59.71
17309;BME280;8772;42.804;23.426;2022-07-23T07:33:28;94974.16;;;25.60;56.73
17309;BME280;8772;42.804;23.426;2022-07-23T07:35:55;94970.66;;;25.76;57.18
17309;BME280;8772;42.804;23.426;2022-07-23T07:38:22;94971.16;;;25.91;56.25
17309;BME280;8772;42.804;23.426;2022-07-23T07:40:50;94962.69;;;26.05;55.51
17309;BME280;8772;42.804;23.426;2022-07-23T07:43:17;94965.66;;;26.13;55.08
17309;BME280;8772;42.804;23.426;2022-07-23T07:45:44;94959.38;;;26.29;53.46
17309;BME280;8772;42.804;23.426;2022-07-23T07:48:11;94963.81;;;26.37;54.63
17309;BME280;8772;42.804;23.426;2022-07-23T07:50:38;94967.03;;;26.47;53.99
17309;BME280;8772;42.804;23.426;2022-07-23T07:53:05;94962.28;;;26.58;52.63
17309;BME280;8772;42.804;23.426;2022-07-23T07:55:32;94966.47;;;26.70;53.32
17309;BME280;8772;42.804;23.426;2022-07-23T07:58:00;94955.94;;;26.80;50.56
17309;BME280;8772;42.804;23.426;2022-07-23T08:00:28;94948.44;;;26.86;50.60
17309;BME280;8772;42.804;23.426;2022-07-23T08:02:55;94953.38;;;26.93;51.44
17309;BME280;8772;42.804;23.426;2022-07-23T08:05:23;94954.75;;;27.10;53.94
17309;BME280;8772;42.804;23.426;2022-07-23T08:07:51;94960.16;;;27.27;52.08
17309;BME280;8772;42.804;23.426;2022-07-23T08:10:18;94962.03;;;27.42;51.14
17309;BME280;8772;42.804;23.426;2022-07-23T08:12:46;94952.38;;;27.65;50.02
17309;BME280;8772;42.804;23.426;2022-07-23T08:15:18;94950.41;;;27.90;50.85
17309;BME280;8772;42.804;23.426;2022-07-23T08:17:46;94946.94;;;28.13;50.33
17309;BME280;8772;42.804;23.426;2022-07-23T08:20:15;94948.75;;;28.29;48.87
17309;BME280;8772;42.804;23.426;2022-07-23T08:22:47;94948.59;;;28.46;48.07
17309;BME280;8772;42.804;23.426;2022-07-23T08:25:15;94945.66;;;28.62;47.57
17309;BME280;8772;42.804;23.426;2022-07-23T08:27:43;94943.19;;;28.77;43.92
17309;BME280;8772;42.804;23.426;2022-07-23T08:30:10;94940.28;;;28.88;45.15
17309;BME280;8772;42.804;23.426;2022-07-23T08:32:53;94934.06;;;29.06;44.31
17309;BME280;8772;42.804;23.426;2022-07-23T08:35:25;94936.69;;;29.30;41.75
17309;BME280;8772;42.804;23.426;2022-07-23T08:37:52;94931.78;;;29.42;44.50
17309;BME280;8772;42.804;23.426;2022-07-23T08:40:19;94941.94;;;29.65;44.14
17309;BME280;8772;42.804;23.426;2022-07-23T08:42:48;94935.09;;;29.84;45.21
17309;BME280;8772;42.804;23.426;2022-07-23T08:45:17;94927.28;;;30.14;44.19
17309;BME280;8772;42.804;23.426;2022-07-23T08:47:44;94928.22;;;30.43;44.10
17309;BME280;8772;42.804;23.426;2022-07-23T08:50:13;94933.34;;;30.65;42.69
17309;BME280;8772;42.804;23.426;2022-07-23T08:52:40;94926.88;;;30.96;42.48
17309;BME280;8772;42.804;23.426;2022-07-23T08:55:07;94924.69;;;31.28;39.06
17309;BME280;8772;42.804;23.426;2022-07-23T08:57:35;94920.72;;;31.57;40.52
17309;BME280;8772;42.804;23.426;2022-07-23T09:00:04;94922.00;;;31.97;37.65
17309;BME280;8772;42.804;23.426;2022-07-23T09:02:38;94920.03;;;32.33;34.59
17309;BME280;8772;42.804;23.426;2022-07-23T09:05:06;94926.84;;;32.59;35.02
17309;BME280;8772;42.804;23.426;2022-07-23T09:07:35;94922.88;;;32.75;35.85
17309;BME280;8772;42.804;23.426;2022-07-23T09:10:07;94921.88;;;33.08;32.64
17309;BME280;8772;42.804;23.426;2022-07-23T09:12:35;94921.78;;;33.21;34.02
17309;BME280;8772;42.804;23.426;2022-07-23T09:15:07;94917.56;;;33.50;32.20
17309;BME280;8772;42.804;23.426;2022-07-23T09:17:38;94916.69;;;33.78;32.77
17309;BME280;8772;42.804;23.426;2022-07-23T09:20:10;94911.28;;;34.10;31.83
17309;BME280;8772;42.804;23.426;2022-07-23T09:22:40;94911.84;;;34.31;29.67
17309;BME280;8772;42.804;23.426;2022-07-23T09:25:10;94913.78;;;34.68;29.39
17309;BME280;8772;42.804;23.426;2022-07-23T09:27:49;94910.81;;;34.81;29.87
17309;BME280;8772;42.804;23.426;2022-07-23T09:30:18;94911.13;;;34.92;29.71
17309;BME280;8772;42.804;23.426;2022-07-23T09:33:04;94907.63;;;35.23;29.53
17309;BME280;8772;42.804;23.426;2022-07-23T09:35:45;94898.19;;;35.51;28.89
17309;BME280;8772;42.804;23.426;2022-07-23T09:38:14;94899.47;;;35.82;28.94
17309;BME280;8772;42.804;23.426;2022-07-23T09:40:41;94896.34;;;36.02;28.33
17309;BME280;8772;42.804;23.426;2022-07-23T09:43:08;94882.94;;;36.25;27.74
17309;BME280;8772;42.804;23.426;2022-07-23T09:45:35;94890.09;;;36.36;26.60
17309;BME280;8772;42.804;23.426;2022-07-23T09:48:11;94892.81;;;36.60;26.22
17309;BME280;8772;42.804;23.426;2022-07-23T09:50:38;94890.59;;;36.76;27.57
17309;BME280;8772;42.804;23.426;2022-07-23T09:53:06;94882.28;;;37.02;26.46
17309;BME280;8772;42.804;23.426;2022-07-23T09:55:35;94882.28;;;37.02;26.95
17309;BME280;8772;42.804;23.426;2022-07-23T09:58:04;94884.34;;;37.28;27.35
17309;BME280;8772;42.804;23.426;2022-07-23T10:00:32;94876.06;;;37.47;25.81
17309;BME280;8772;42.804;23.426;2022-07-23T10:02:59;94876.81;;;37.48;26.12
17309;BME280;8772;42.804;23.426;2022-07-23T10:05:28;94873.09;;;37.71;24.69
17309;BME280;8772;42.804;23.426;2022-07-23T10:07:58;94870.53;;;37.92;25.73
17309;BME280;8772;42.804;23.426;2022-07-23T10:10:26;94863.50;;;38.10;24.70
17309;BME280;8772;42.804;23.426;2022-07-23T10:12:56;94854.56;;;38.31;24.22
17309;BME280;8772;42.804;23.426;2022-07-23T10:15:55;94849.59;;;38.58;25.13
17309;BME280;8772;42.804;23.426;2022-07-23T10:18:23;94863.28;;;38.82;25.11
17309;BME280;8772;42.804;23.426;2022-07-23T10:20:50;94854.66;;;39.18;25.36
17309;BME280;8772;42.804;23.426;2022-07-23T10:23:23;94852.91;;;39.32;23.62
17309;BME280;8772;42.804;23.426;2022-07-23T10:25:59;94846.81;;;39.45;24.09
17309;BME280;8772;42.804;23.426;2022-07-23T10:31:35;94838.78;;;39.91;24.43
17309;BME280;8772;42.804;23.426;2022-07-23T10:34:12;94846.78;;;39.85;23.94
17309;BME280;8772;42.804;23.426;2022-07-23T10:36:47;94827.50;;;39.80;23.27
17309;BME280;8772;42.804;23.426;2022-07-23T10:39:20;94842.22;;;39.80;24.02
17309;BME280;8772;42.804;23.426;2022-07-23T10:41:48;94828.81;;;40.09;24.98
17309;BME280;8772;42.804;23.426;2022-07-23T10:44:18;94820.94;;;40.17;23.72
17309;BME280;8772;42.804;23.426;2022-07-23T10:46:55;94816.50;;;40.56;24.62
17309;BME280;8772;42.804;23.426;2022-07-23T10:49:40;94822.69;;;40.75;23.24
17309;BME280;8772;42.804;23.426;2022-07-23T10:54:55;94814.97;;;40.97;23.56
17309;BME280;8772;42.804;23.426;2022-07-23T10:57:24;94814.97;;;41.08;23.32
17309;BME280;8772;42.804;23.426;2022-07-23T11:00:22;94801.34;;;41.26;23.01
17309;BME280;8772;42.804;23.426;2022-07-23T11:02:50;94797.31;;;41.17;22.22
17309;BME280;8772;42.804;23.426;2022-07-23T11:05:19;94798.06;;;40.85;22.49
17309;BME280;8772;42.804;23.426;2022-07-23T11:08:12;94790.53;;;40.88;22.52
17309;BME280;8772;42.804;23.426;2022-07-23T11:10:41;94786.66;;;41.16;22.67
17309;BME280;8772;42.804;23.426;2022-07-23T11:16:19;94778.34;;;41.18;21.15
17309;BME280;8772;42.804;23.426;2022-07-23T11:19:07;94780.56;;;41.19;21.41
17309;BME280;8772;42.804;23.426;2022-07-23T11:21:51;94775.81;;;41.22;21.94
17309;BME280;8772;42.804;23.426;2022-07-23T11:24:20;94776.81;;;41.26;21.98
17309;BME280;8772;42.804;23.426;2022-07-23T11:26:59;94776.19;;;41.28;22.92
17309;BME280;8772;42.804;23.426;2022-07-23T11:29:44;94777.16;;;41.67;22.99
17309;BME280;8772;42.804;23.426;2022-07-23T11:32:37;94768.63;;;41.88;21.18
17309;BME280;8772;42.804;23.426;2022-07-23T11:35:28;94766.16;;;41.94;21.30
17309;BME280;8772;42.804;23.426;2022-07-23T11:38:04;94772.88;;;42.00;21.15
17309;BME280;8772;42.804;23.426;2022-07-23T11:40:31;94760.00;;;42.20;20.96
17309;BME280;8772;42.804;23.426;2022-07-23T11:43:00;94758.63;;;42.33;19.75
17309;BME280;8772;42.804;23.426;2022-07-23T11:45:33;94755.03;;;41.96;19.89
17309;BME280;8772;42.804;23.426;2022-07-23T11:48:02;94762.97;;;42.11;21.37
17309;BME280;8772;42.804;23.426;2022-07-23T11:50:30;94753.13;;;41.75;21.13
17309;BME280;8772;42.804;23.426;2022-07-23T11:52:57;94753.72;;;41.51;20.34
17309;BME280;8772;42.804;23.426;2022-07-23T11:55:24;94747.97;;;41.14;21.27
17309;BME280;8772;42.804;23.426;2022-07-23T11:57:52;94751.50;;;41.03;21.21
17309;BME280;8772;42.804;23.426;2022-07-23T12:00:21;94754.91;;;41.02;21.35
17309;BME280;8772;42.804;23.426;2022-07-23T12:02:50;94750.66;;;40.57;21.29
17309;BME280;8772;42.804;23.426;2022-07-23T12:05:20;94746.13;;;40.52;21.17
17309;BME280;8772;42.804;23.426;2022-07-23T12:07:48;94746.50;;;40.25;22.00
17309;BME280;8772;42.804;23.426;2022-07-23T12:10:19;94739.13;;;40.00;22.08
17309;BME280;8772;42.804;23.426;2022-07-23T12:12:48;94740.00;;;39.81;22.54
17309;BME280;8772;42.804;23.426;2022-07-23T12:15:16;94729.88;;;39.97;21.04
17309;BME280;8772;42.804;23.426;2022-07-23T12:17:45;94728.63;;;39.89;21.05
17309;BME280;8772;42.804;23.426;2022-07-23T12:20:14;94738.50;;;40.11;22.04
17309;BME280;8772;42.804;23.426;2022-07-23T12:22:44;94732.06;;;40.19;21.88
17309;BME280;8772;42.804;23.426;2022-07-23T12:25:14;94727.56;;;40.47;21.11
17309;BME280;8772;42.804;23.426;2022-07-23T12:27:42;94737.81;;;40.54;19.64
17309;BME280;8772;42.804;23.426;2022-07-23T12:30:21;94724.22;;;40.39;20.69
17309;BME280;8772;42.804;23.426;2022-07-23T12:32:50;94724.44;;;40.64;20.58
17309;BME280;8772;42.804;23.426;2022-07-23T12:35:17;94719.69;;;40.78;20.24
17309;BME280;8772;42.804;23.426;2022-07-23T12:37:48;94724.47;;;40.75;20.25
17309;BME280;8772;42.804;23.426;2022-07-23T12:40:23;94713.66;;;40.93;19.63
17309;BME280;8772;42.804;23.426;2022-07-23T12:42:53;94706.94;;;40.98;19.90
17309;BME280;8772;42.804;23.426;2022-07-23T12:45:20;94702.69;;;40.97;18.13
17309;BME280;8772;42.804;23.426;2022-07-23T12:47:59;94712.94;;;40.92;18.92
17309;BME280;8772;42.804;23.426;2022-07-23T12:50:42;94704.03;;;40.52;19.02
17309;BME280;8772;42.804;23.426;2022-07-23T12:53:14;94709.41;;;40.59;19.21
17309;BME280;8772;42.804;23.426;2022-07-23T12:55:42;94702.09;;;40.54;19.89
17309;BME280;8772;42.804;23.426;2022-07-23T12:58:14;94699.47;;;40.79;20.20
17309;BME280;8772;42.804;23.426;2022-07-23T13:01:01;94691.94;;;41.16;20.02
17309;BME280;8772;42.804;23.426;2022-07-23T13:03:31;94689.72;;;41.49;18.08
17309;BME280;8772;42.804;23.426;2022-07-23T13:05:59;94688.25;;;41.60;18.25
17309;BME280;8772;42.804;23.426;2022-07-23T13:08:29;94685.06;;;41.54;17.32
17309;BME280;8772;42.804;23.426;2022-07-23T13:10:58;94688.78;;;41.45;17.33
17309;BME280;8772;42.804;23.426;2022-07-23T13:13:26;94688.22;;;41.71;18.33
17309;BME280;8772;42.804;23.426;2022-07-23T13:15:54;94678.75;;;41.30;16.49
17309;BME280;8772;42.804;23.426;2022-07-23T13:18:22;94683.63;;;41.41;17.33